메인 페이지
METAR-TAF:

METAR-TAF

공항 :

콩코드, 뉴햄프셔, 미국

위도: 43-11-43N, 경도: 071-30-04W, 고도: 105m

현재 날씨관측

예보는 5 시간 26분 전, 03:51시(UTC)에 발표되었습니다.
무풍
온도 15°C
습도 94%
기압 1004 hPa
시정: 16.1km
맑음

METAR: KCON 040351Z AUTO 00000KT 10SM CLR 15/14 A2966 RMK AO2 SLP044 T01500139

시각: 05:17 (09:17 UTC)

예보

예보는 3 시간 55분 전, 05:22시(UTC)에 발표되었습니다.
예보 대상 시간: 04일 06시부터 05일 06시까지 (UTC)
kt
시정: 10km
고도 25000ft 상공 구름 조금
04일 1500시부터 (UTC)
8kt, 순간 최대 풍속 15kt
시정: 10km
고도 10000ft 상공 구름 보통
04일 2300시부터 (UTC)
여러 방향의 바람 3kt
시정: 10km
맑음

TAF: KCON 040522Z 0406/0506 00000KT P6SM FEW250 FM041500 26008G15KT P6SM SCT100 FM042300 VRB03KT P6SM SKC

4,000개 이상의 공항 관측 자료 및 예보 (METAR 및 TAF 보고).

지도상에서 검색 가능한 기상관측소가 노란 점과 빨간 점으로 표시되어 있습니다.

기상관측소 명을 보려면 표시 위로 마우스를 이동하세요.

날씨 관측과 예보를 보려면 클릭하세요.

지도 변경 : 확대하려면 엑스 표시가 있는 녹색 버튼, 축소하려면 빼기 표시가 있는 녹색 버튼, 다음 페이지의 지도를 보려면 녹색 화살표를 클릭하세요.


METAR-TAF: